createdAt,value
2018-08-30T00:04:24.997Z,3.67
2018-08-30T00:10:20.007Z,3.36
2018-08-30T00:16:14.997Z,3.82
2018-08-30T00:22:10.018Z,3.68
2018-08-30T00:28:05.024Z,3.73
2018-08-30T00:34:00.043Z,3.66
2018-08-30T00:39:55.014Z,3.53
2018-08-30T00:45:50.019Z,3.73
2018-08-30T00:51:45.029Z,4.17
2018-08-30T00:57:40.095Z,4.18
2018-08-30T01:03:35.040Z,4.15
2018-08-30T01:09:30.034Z,3.29
2018-08-30T01:15:25.031Z,3.67
2018-08-30T01:21:20.121Z,3.68
2018-08-30T01:27:15.035Z,4.24
2018-08-30T01:33:10.044Z,3.74
2018-08-30T01:39:05.101Z,4.12
2018-08-30T01:45:00.153Z,3.8
2018-08-30T01:50:55.075Z,3.61
2018-08-30T01:56:50.060Z,3.96
2018-08-30T02:02:45.081Z,3.88
2018-08-30T02:08:40.113Z,4.43
2018-08-30T02:14:35.078Z,4.42
2018-08-30T02:20:30.123Z,4.28
2018-08-30T02:26:25.107Z,4.3
2018-08-30T02:32:20.129Z,4.38
2018-08-30T02:38:15.122Z,3.86
2018-08-30T02:44:10.081Z,4.12
2018-08-30T02:50:05.142Z,4.1
2018-08-30T02:56:00.127Z,3.81
2018-08-30T03:01:55.131Z,4.13
2018-08-30T03:07:50.103Z,3.9
2018-08-30T03:13:45.123Z,4.43
2018-08-30T03:19:40.136Z,4.07
2018-08-30T03:25:35.152Z,4.46
2018-08-30T03:31:30.184Z,4.2
2018-08-30T03:37:25.131Z,3.97
2018-08-30T03:43:20.121Z,4.31
2018-08-30T03:49:15.133Z,3.72
2018-08-30T03:55:10.192Z,4.36
2018-08-30T04:01:05.207Z,4.2
2018-08-30T04:07:00.164Z,4.11
2018-08-30T04:12:55.169Z,4.58
2018-08-30T04:18:50.218Z,4.02
2018-08-30T04:24:45.182Z,4.16
2018-08-30T04:30:40.156Z,4.33
2018-08-30T04:36:35.186Z,4.7
2018-08-30T04:42:30.262Z,4.95
2018-08-30T04:48:25.216Z,5.39
2018-08-30T04:54:20.195Z,6.64
2018-08-30T05:00:15.202Z,5.85
2018-08-30T05:06:10.218Z,5.87
2018-08-30T05:12:05.189Z,5.03
2018-08-30T05:18:00.198Z,5.74
2018-08-30T05:23:55.182Z,5.2
2018-08-30T05:29:50.324Z,5.83
2018-08-30T05:35:45.267Z,5.27
2018-08-30T05:41:40.195Z,11.16
2018-08-30T05:47:35.210Z,8.51
2018-08-30T05:53:30.235Z,6.56
2018-08-30T05:59:25.252Z,6.4
2018-08-30T06:05:20.263Z,4.87
2018-08-30T06:11:15.218Z,4.45
2018-08-30T06:17:10.244Z,5.08
2018-08-30T06:23:05.232Z,4.92
2018-08-30T06:29:00.239Z,4.48
2018-08-30T06:34:55.271Z,4.64
2018-08-30T06:40:50.291Z,5.01
2018-08-30T06:46:45.253Z,4.08
2018-08-30T06:52:40.242Z,3.73
2018-08-30T06:58:35.333Z,4.62
2018-08-30T07:04:30.252Z,5
2018-08-30T07:10:25.257Z,4.63
2018-08-30T07:16:20.277Z,4.76
2018-08-30T07:22:15.261Z,4.47
2018-08-30T07:28:10.271Z,4.69
2018-08-30T07:34:05.285Z,4.73
2018-08-30T07:40:00.288Z,3.56
2018-08-30T07:45:55.350Z,4.01
2018-08-30T07:51:50.354Z,4.05
2018-08-30T07:57:45.294Z,3.94
2018-08-30T08:03:40.335Z,3.82
2018-08-30T08:09:35.331Z,3.15
2018-08-30T08:15:30.320Z,3.25
2018-08-30T08:21:25.299Z,3.27
2018-08-30T08:27:20.324Z,2.95
2018-08-30T08:33:15.297Z,2.38
2018-08-30T08:39:10.293Z,2.68
2018-08-30T08:45:05.327Z,4.2
2018-08-30T08:51:00.351Z,2.6
2018-08-30T08:56:55.333Z,5.36
2018-08-30T09:02:50.356Z,8.1
2018-08-30T09:08:45.398Z,3.97
2018-08-30T09:14:40.334Z,3.83
2018-08-30T09:20:35.336Z,3.94
2018-08-30T09:26:30.346Z,5.5
2018-08-30T09:32:25.364Z,8.14
2018-08-30T09:38:20.346Z,4.73
2018-08-30T09:44:15.375Z,5.33
2018-08-30T09:50:10.485Z,4.75
2018-08-30T09:56:05.356Z,5.56
2018-08-30T10:02:00.436Z,5.81
2018-08-30T10:07:55.388Z,5.27
2018-08-30T10:13:50.401Z,6.1
2018-08-30T10:19:45.409Z,5.91
2018-08-30T10:25:40.407Z,5.8
2018-08-30T10:31:35.504Z,6.67
2018-08-30T10:37:30.367Z,6.13
2018-08-30T10:43:25.377Z,6.44
2018-08-30T10:49:20.454Z,6.2
2018-08-30T10:55:15.468Z,6.42
2018-08-30T11:01:10.415Z,6.12
2018-08-30T11:07:05.437Z,6.88
2018-08-30T11:13:00.603Z,6.32
2018-08-30T11:18:55.442Z,6.79
2018-08-30T11:24:50.430Z,5.93
2018-08-30T11:30:45.445Z,5.9
2018-08-30T11:36:40.458Z,5.07
2018-08-30T11:42:35.414Z,5.43
2018-08-30T11:48:30.447Z,5.69
2018-08-30T11:54:25.479Z,5.89
2018-08-30T12:00:20.430Z,5.38
2018-08-30T12:06:15.437Z,5.48
2018-08-30T12:12:10.487Z,5
2018-08-30T12:18:05.464Z,5.1
2018-08-30T12:24:00.451Z,4.89
2018-08-30T12:29:55.482Z,4.54
2018-08-30T12:35:50.583Z,4.98
2018-08-30T12:41:45.487Z,4.18
2018-08-30T12:47:40.510Z,4.29
2018-08-30T12:53:35.682Z,4.43
2018-08-30T12:59:30.607Z,4.66
2018-08-30T13:05:25.818Z,4.27
2018-08-30T13:11:20.807Z,4.13
2018-08-30T13:17:15.705Z,4.58
2018-08-30T13:23:10.782Z,4.13
2018-08-30T13:29:05.831Z,3.29
2018-08-30T13:35:01.060Z,3.01
2018-08-30T13:40:56.172Z,3.31
2018-08-30T13:46:50.952Z,3.72
2018-08-30T13:52:46.027Z,4.07
2018-08-30T13:58:41.332Z,4.59
2018-08-30T14:04:35.883Z,3.59
2018-08-30T14:10:30.945Z,3.73
2018-08-30T14:16:25.537Z,4.02
2018-08-30T14:22:20.544Z,3.99
2018-08-30T14:28:15.569Z,3.76
2018-08-30T14:34:10.519Z,3.42
2018-08-30T14:40:05.635Z,3.85
2018-08-30T14:46:00.534Z,3.7
2018-08-30T14:51:55.529Z,4.1
2018-08-30T14:57:50.547Z,4.45
2018-08-30T15:03:45.552Z,4.55
2018-08-30T15:09:40.565Z,4.47
2018-08-30T15:15:35.552Z,3.93
2018-08-30T15:21:30.585Z,4.59
2018-08-30T15:27:25.662Z,3.89
2018-08-30T15:33:20.619Z,3.39
2018-08-30T15:39:15.559Z,4.3
2018-08-30T15:45:10.578Z,3.98
2018-08-30T15:51:05.596Z,4.05
2018-08-30T15:57:00.635Z,4.03
2018-08-30T16:02:55.619Z,4.02
2018-08-30T16:08:50.641Z,3.93
2018-08-30T16:14:45.600Z,4.18
2018-08-30T16:20:40.609Z,3.97
2018-08-30T16:26:35.613Z,4.11
2018-08-30T16:32:30.700Z,4.26
2018-08-30T16:38:25.621Z,3.82
2018-08-30T16:44:20.650Z,3.51
2018-08-30T16:50:15.642Z,4.06
2018-08-30T16:56:10.695Z,3.88
2018-08-30T17:02:05.744Z,4.24
2018-08-30T17:08:00.636Z,3.46
2018-08-30T17:13:55.657Z,3.96
2018-08-30T17:19:50.661Z,4.15
2018-08-30T17:25:45.646Z,3.98
2018-08-30T17:31:40.632Z,3.78
2018-08-30T17:37:35.635Z,4
2018-08-30T17:43:30.664Z,3.27
2018-08-30T17:49:25.680Z,3.58
2018-08-30T17:55:20.691Z,4.05
2018-08-30T18:01:15.813Z,3.85
2018-08-30T18:07:10.849Z,4.31
2018-08-30T18:13:05.690Z,4.97
2018-08-30T18:19:00.666Z,4.35
2018-08-30T18:24:55.706Z,4.85
2018-08-30T18:30:50.708Z,4.26
2018-08-30T18:36:45.674Z,4.48
2018-08-30T18:42:40.738Z,4.68
2018-08-30T18:48:35.707Z,4.93
2018-08-30T18:54:30.692Z,4.39
2018-08-30T19:00:25.713Z,4.29
2018-08-30T19:06:20.692Z,5.47
2018-08-30T19:12:15.707Z,5.59
2018-08-30T19:18:10.722Z,5.14
2018-08-30T19:24:05.737Z,6.87
2018-08-30T19:30:00.705Z,5.8
2018-08-30T19:35:55.716Z,5.96
2018-08-30T19:41:50.754Z,5.12
2018-08-30T19:47:45.742Z,5.41
2018-08-30T19:53:40.788Z,5.72
2018-08-30T19:59:35.742Z,6.19
2018-08-30T20:05:30.735Z,5.75
2018-08-30T20:11:25.750Z,6.36
2018-08-30T20:17:20.737Z,6.05
2018-08-30T20:23:15.735Z,8.34
2018-08-30T20:29:10.763Z,7.49
2018-08-30T20:35:05.768Z,8.3
2018-08-30T20:41:00.855Z,8.21
2018-08-30T20:46:55.761Z,8.64
2018-08-30T20:52:50.772Z,7.81
2018-08-30T20:58:45.774Z,7.37
2018-08-30T21:04:40.783Z,7.29
2018-08-30T21:10:35.809Z,6.92
2018-08-30T21:16:30.808Z,7.22
2018-08-30T21:22:25.793Z,6.3
2018-08-30T21:28:20.834Z,6.15
2018-08-30T21:34:15.885Z,6.21
2018-08-30T21:40:10.844Z,6.79
2018-08-30T21:46:05.797Z,6.69
2018-08-30T21:52:00.844Z,6.43
2018-08-30T21:57:55.828Z,6.99
2018-08-30T22:03:50.816Z,6.02
2018-08-30T22:09:45.840Z,6.94
2018-08-30T22:15:40.810Z,6.48
2018-08-30T22:21:35.858Z,7.61
2018-08-30T22:27:30.880Z,6.72
2018-08-30T22:33:25.853Z,6.43
2018-08-30T22:39:20.860Z,6.88
2018-08-30T22:51:10.854Z,6.79
2018-08-30T22:51:10.873Z,6.47
2018-08-30T22:57:05.844Z,6.57
2018-08-30T23:03:00.861Z,6.77
2018-08-30T23:08:55.871Z,6.44
2018-08-30T23:14:50.853Z,6.62
2018-08-30T23:20:45.922Z,6.35
2018-08-30T23:26:40.867Z,6.43
2018-08-30T23:32:35.877Z,6.76
2018-08-30T23:38:30.859Z,6.21
2018-08-30T23:44:25.950Z,6.66
2018-08-30T23:50:20.942Z,6.63
2018-08-30T23:56:15.878Z,7.29
